createdAt,value
2022-10-23T06:28:34.466Z,100.00
2022-10-23T06:31:36.914Z,81.98
2022-10-23T06:34:39.399Z,93.18
2022-10-23T06:37:41.855Z,69.28
2022-10-23T06:40:46.978Z,64.17
2022-10-23T06:43:51.994Z,85.36
2022-10-23T06:54:59.797Z,96.19
2022-10-23T06:58:02.654Z,94.50
2022-10-23T07:01:07.233Z,86.56
2022-10-23T07:04:09.796Z,88.28
2022-10-23T07:07:12.229Z,85.96
2022-10-23T07:10:16.136Z,87.21
2022-10-23T07:13:18.671Z,89.67
2022-10-23T07:16:22.691Z,89.70
2022-10-23T07:19:25.141Z,89.64
2022-10-23T07:22:27.609Z,90.17
2022-10-23T07:25:31.391Z,91.13
2022-10-23T07:28:33.932Z,92.03
2022-10-23T07:31:36.385Z,93.03
2022-10-23T07:34:39.121Z,94.46
2022-10-23T07:37:41.925Z,95.21
2022-10-23T07:40:46.149Z,92.76
2022-10-23T07:43:48.711Z,92.47
2022-10-23T07:46:51.163Z,89.08
2022-10-23T07:49:53.586Z,88.50
2022-10-23T07:52:57.204Z,87.78
2022-10-23T07:56:03.248Z,87.41
2022-10-23T07:59:05.771Z,85.83
2022-10-23T08:02:12.114Z,86.03
2022-10-23T08:05:14.634Z,83.12
2022-10-23T08:08:17.117Z,85.03
2022-10-23T08:11:26.236Z,85.89
2022-10-23T08:14:29.070Z,84.88
2022-10-23T08:17:31.514Z,84.91
2022-10-23T08:20:34.489Z,83.22
2022-10-23T08:23:36.941Z,81.98
2022-10-23T08:26:40.885Z,82.99
2022-10-23T08:29:43.325Z,82.99
2022-10-23T08:32:45.779Z,81.72
2022-10-23T08:35:48.382Z,84.05
2022-10-23T08:38:53.532Z,84.05
2022-10-23T08:41:57.403Z,80.49
2022-10-23T08:45:06.612Z,80.18
2022-10-23T08:48:19.471Z,78.18
2022-10-23T08:51:30.256Z,78.46
2022-10-23T08:54:44.282Z,78.46
2022-10-23T08:57:56.259Z,76.52
2022-10-23T09:00:59.155Z,71.73
2022-10-23T09:04:02.783Z,73.55
2022-10-23T09:07:13.944Z,73.75
2022-10-23T09:10:33.979Z,73.75
2022-10-23T09:14:00.362Z,72.19
2022-10-23T09:20:24.112Z,65.62
2022-10-23T09:23:26.572Z,64.30
2022-10-23T09:26:29.385Z,66.74
2022-10-23T09:29:36.250Z,66.31
2022-10-23T09:32:39.709Z,63.24
2022-10-23T09:35:54.358Z,59.30
2022-10-23T09:38:59.779Z,59.30
2022-10-23T09:42:14.077Z,45.46
2022-10-23T09:45:25.899Z,58.28
2022-10-23T09:48:28.657Z,58.74
2022-10-23T09:51:31.455Z,57.77
2022-10-23T09:54:36.650Z,57.83
2022-10-23T09:57:43.044Z,57.83
2022-10-23T10:00:52.242Z,57.82
2022-10-23T10:03:57.837Z,57.84
2022-10-23T10:07:02.215Z,57.10
2022-10-23T10:10:15.154Z,55.79
2022-10-23T10:13:36.622Z,54.54
2022-10-23T10:16:49.976Z,53.63
2022-10-23T10:20:06.854Z,53.83
2022-10-23T10:23:19.218Z,55.02
2022-10-23T10:26:38.022Z,53.71
2022-10-23T10:29:54.636Z,53.81
2022-10-23T10:33:03.208Z,54.51
2022-10-23T10:36:20.736Z,53.46
2022-10-23T10:39:38.281Z,53.06
2022-10-23T10:42:55.542Z,53.36
2022-10-23T10:46:06.121Z,53.80
2022-10-23T10:49:20.115Z,52.72
2022-10-23T10:55:33.255Z,54.01
2022-10-23T10:58:41.086Z,53.29
2022-10-23T11:01:48.083Z,53.39
2022-10-23T11:04:55.413Z,52.82
2022-10-23T11:08:01.339Z,52.49
2022-10-23T11:11:11.094Z,52.38
2022-10-23T11:14:18.027Z,52.57
2022-10-23T11:17:26.028Z,51.97
2022-10-23T11:20:47.638Z,52.53
2022-10-23T11:24:17.888Z,52.27
2022-10-23T11:27:39.397Z,52.52
2022-10-23T11:30:57.430Z,52.82
2022-10-23T11:34:20.080Z,53.17
2022-10-23T11:37:24.597Z,53.78
2022-10-23T11:40:27.373Z,54.05
2022-10-23T11:43:33.364Z,54.80
2022-10-23T11:46:38.109Z,53.35
2022-10-23T11:49:40.567Z,42.31
2022-10-23T11:53:13.094Z,52.99
2022-10-23T11:56:34.314Z,51.67
2022-10-23T11:59:40.673Z,51.97
2022-10-23T12:02:44.261Z,52.26
2022-10-23T12:05:47.175Z,53.33
2022-10-23T12:08:55.980Z,52.92
2022-10-23T12:12:28.128Z,52.89
2022-10-23T12:15:31.319Z,53.29
2022-10-23T12:18:34.429Z,41.65
2022-10-23T12:21:39.359Z,52.71
2022-10-23T12:24:56.449Z,52.71
2022-10-23T12:28:04.892Z,52.71
2022-10-23T12:31:24.944Z,52.77
2022-10-23T12:34:39.914Z,53.49
2022-10-23T12:37:58.393Z,53.02
2022-10-23T12:41:11.141Z,52.50
2022-10-23T12:44:13.972Z,52.45
2022-10-23T12:47:19.701Z,51.65
2022-10-23T12:50:24.742Z,51.44
2022-10-23T12:53:27.484Z,52.00
2022-10-23T12:56:38.895Z,41.79
2022-10-23T12:59:43.896Z,53.52
2022-10-23T13:02:47.007Z,54.27
2022-10-23T13:05:51.486Z,54.90
2022-10-23T13:08:54.721Z,55.43
2022-10-23T13:12:00.188Z,55.77
2022-10-23T13:15:14.989Z,55.89
2022-10-23T13:18:18.640Z,55.67
2022-10-23T13:21:23.749Z,55.54
2022-10-23T13:24:30.498Z,54.92
2022-10-23T13:27:35.403Z,55.82
2022-10-23T13:30:42.060Z,55.42
2022-10-23T13:33:46.389Z,56.62
2022-10-23T13:36:56.185Z,56.85
2022-10-23T13:40:02.664Z,56.85
2022-10-23T13:43:15.914Z,57.04
2022-10-23T13:46:20.907Z,56.94
2022-10-23T13:49:23.439Z,57.87
2022-10-23T13:52:26.902Z,57.74
2022-10-23T13:55:30.331Z,57.74
2022-10-23T13:58:34.401Z,100.00
2022-10-23T14:01:37.362Z,59.42
2022-10-23T14:04:39.925Z,59.33
2022-10-23T14:07:42.705Z,60.35
2022-10-23T14:10:45.817Z,59.72
2022-10-23T14:13:50.393Z,59.72
2022-10-23T14:16:53.225Z,59.02
2022-10-23T14:19:55.905Z,59.29
2022-10-23T14:22:58.455Z,61.68
2022-10-23T14:26:03.253Z,59.55
2022-10-23T14:29:09.885Z,59.37
2022-10-23T14:32:13.880Z,46.90
2022-10-23T14:35:16.469Z,61.21
2022-10-23T14:38:19.063Z,61.21
2022-10-23T14:41:21.509Z,62.42
2022-10-23T14:44:25.435Z,62.81
2022-10-23T14:47:28.017Z,63.33
2022-10-23T14:50:32.472Z,64.29
2022-10-23T14:53:35.032Z,69.46
2022-10-23T14:56:39.958Z,66.59
2022-10-23T14:59:43.811Z,67.34
2022-10-23T15:02:46.487Z,67.28
2022-10-23T15:05:49.065Z,67.67
2022-10-23T15:08:51.953Z,67.00
2022-10-23T15:11:54.397Z,68.13
2022-10-23T15:14:58.132Z,69.19
2022-10-23T15:18:00.625Z,69.17
2022-10-23T15:21:05.451Z,69.17
2022-10-23T15:24:08.181Z,69.17
2022-10-23T15:27:10.612Z,71.08
2022-10-23T15:30:15.549Z,70.98
2022-10-23T15:33:19.906Z,70.98
2022-10-23T15:36:22.522Z,52.75
2022-10-23T15:39:27.152Z,69.72
2022-10-23T15:42:29.571Z,69.09
2022-10-23T15:45:33.978Z,69.86
2022-10-23T15:48:36.426Z,100.00
2022-10-23T15:51:39.836Z,100.00
2022-10-23T15:54:42.262Z,100.00
2022-10-23T15:57:44.674Z,100.00
2022-10-23T16:00:48.413Z,100.00
2022-10-23T16:03:51.152Z,100.00
2022-10-23T16:06:53.557Z,100.00
2022-10-23T16:09:56.131Z,100.00
2022-10-23T16:12:58.526Z,100.00
2022-10-23T16:16:05.264Z,100.00
2022-10-23T16:19:07.742Z,100.00
2022-10-23T16:22:10.258Z,100.00
2022-10-23T16:25:12.862Z,100.00
2022-10-23T16:28:15.422Z,100.00
2022-10-23T16:31:23.917Z,100.00
2022-10-23T16:34:26.483Z,100.00
2022-10-23T16:37:28.919Z,100.00
2022-10-23T16:40:31.378Z,100.00
2022-10-23T16:43:33.843Z,100.00
2022-10-23T16:46:38.917Z,100.00
2022-10-23T16:49:41.363Z,100.00
2022-10-23T16:52:43.892Z,100.00
2022-10-23T16:55:46.474Z,100.00
2022-10-23T16:58:49.174Z,100.00
2022-10-23T17:01:53.534Z,100.00
2022-10-23T17:04:56.065Z,100.00
2022-10-23T17:07:58.483Z,100.00
2022-10-23T17:11:09.278Z,100.00
2022-10-23T17:14:14.398Z,100.00
2022-10-23T17:17:18.151Z,100.00
2022-10-23T17:20:20.802Z,100.00
2022-10-23T17:23:23.253Z,100.00
2022-10-23T17:26:26.054Z,100.00
2022-10-23T17:29:28.592Z,100.00
2022-10-23T17:32:32.354Z,100.00
2022-10-23T17:35:34.812Z,100.00
2022-10-23T17:38:37.654Z,100.00
2022-10-23T17:41:40.205Z,100.00
2022-10-23T17:44:42.653Z,100.00
2022-10-23T17:47:46.417Z,100.00
2022-10-23T17:50:48.859Z,100.00
2022-10-23T17:53:53.968Z,100.00
2022-10-23T17:56:56.488Z,100.00
2022-10-23T17:59:58.908Z,100.00
2022-10-23T18:03:02.673Z,100.00
2022-10-23T18:06:08.840Z,100.00
2022-10-23T18:09:11.932Z,100.00
2022-10-23T18:12:14.459Z,100.00
2022-10-23T18:15:17.164Z,100.00
2022-10-23T18:18:20.896Z,100.00
2022-10-23T18:21:25.126Z,100.00
2022-10-23T18:24:27.578Z,100.00
2022-10-23T18:27:29.994Z,100.00
2022-10-23T18:30:32.461Z,100.00
2022-10-23T18:33:36.289Z,100.00
2022-10-23T18:36:40.683Z,100.00
2022-10-23T18:39:43.133Z,100.00
2022-10-23T18:42:45.738Z,100.00
2022-10-23T18:45:48.630Z,100.00
2022-10-23T18:48:52.445Z,100.00
2022-10-23T18:51:54.926Z,100.00
2022-10-23T18:54:57.354Z,100.00
2022-10-23T18:57:59.822Z,100.00
2022-10-23T19:01:02.410Z,100.00
2022-10-23T19:04:06.544Z,100.00
2022-10-23T19:07:08.958Z,100.00
2022-10-23T19:10:15.820Z,100.00
2022-10-23T19:13:18.373Z,100.00
2022-10-23T19:16:25.240Z,100.00
2022-10-23T19:19:32.706Z,100.00
2022-10-23T19:22:37.605Z,100.00
2022-10-23T19:25:40.052Z,100.00
2022-10-23T19:28:46.769Z,100.00
2022-10-23T19:31:50.350Z,100.00
2022-10-23T19:34:54.099Z,100.00
2022-10-23T19:37:56.511Z,100.00
2022-10-23T19:40:58.954Z,100.00
2022-10-23T19:44:01.371Z,100.00
2022-10-23T19:47:04.229Z,100.00
2022-10-23T19:50:09.765Z,100.00
2022-10-23T19:53:12.214Z,100.00
2022-10-23T19:56:15.105Z,100.00
2022-10-23T19:59:18.259Z,100.00
2022-10-23T20:02:21.321Z,100.00
2022-10-23T20:05:25.206Z,100.00
2022-10-23T20:08:31.293Z,100.00
2022-10-23T20:11:38.549Z,100.00
2022-10-23T20:14:40.990Z,100.00
2022-10-23T20:17:43.408Z,100.00
2022-10-23T20:20:47.181Z,100.00
2022-10-23T20:23:50.085Z,100.00
2022-10-23T20:26:54.480Z,100.00
2022-10-23T20:29:56.906Z,100.00
2022-10-23T20:32:59.377Z,100.00
2022-10-23T20:36:04.269Z,100.00
2022-10-23T20:39:08.866Z,100.00
2022-10-23T20:42:11.272Z,100.00
2022-10-23T20:45:13.695Z,100.00
2022-10-23T20:48:16.120Z,100.00
2022-10-23T20:51:21.373Z,100.00
2022-10-23T20:54:24.944Z,100.00
2022-10-23T20:57:27.369Z,100.00
2022-10-23T21:00:30.171Z,100.00
2022-10-23T21:03:32.990Z,100.00
2022-10-23T21:06:46.283Z,100.00
2022-10-23T21:09:59.370Z,100.00
2022-10-23T21:13:01.780Z,100.00
2022-10-23T21:16:13.155Z,100.00
2022-10-23T21:19:16.727Z,100.00
2022-10-23T21:22:20.495Z,100.00
2022-10-23T21:25:24.302Z,100.00
2022-10-23T21:28:26.881Z,100.00
2022-10-23T21:31:29.459Z,100.00
2022-10-23T21:34:32.095Z,100.00
2022-10-23T21:37:35.905Z,100.00
2022-10-23T21:40:38.372Z,100.00
2022-10-23T21:43:40.908Z,100.00
2022-10-23T21:46:44.152Z,100.00
2022-10-23T21:49:46.759Z,100.00
2022-10-23T21:52:52.873Z,100.00
2022-10-23T21:55:57.098Z,100.00
2022-10-23T21:59:01.428Z,100.00
2022-10-23T22:02:04.259Z,100.00
2022-10-23T22:05:07.129Z,100.00
2022-10-23T22:08:10.914Z,100.00
2022-10-23T22:11:14.129Z,100.00
2022-10-23T22:14:16.624Z,100.00
2022-10-23T22:17:19.073Z,100.00
2022-10-23T22:20:21.619Z,100.00
2022-10-23T22:23:25.428Z,100.00
2022-10-23T22:26:30.262Z,100.00
2022-10-23T22:29:32.801Z,100.00
2022-10-23T22:32:36.287Z,100.00
2022-10-23T22:35:38.821Z,100.00
2022-10-23T22:38:43.297Z,100.00
2022-10-23T22:41:47.438Z,100.00
2022-10-23T22:44:49.940Z,100.00
2022-10-23T22:47:52.395Z,100.00
2022-10-23T22:50:54.924Z,100.00
2022-10-23T22:53:59.735Z,100.00
2022-10-23T22:57:02.245Z,100.00
2022-10-23T23:00:05.581Z,100.00
2022-10-23T23:03:08.704Z,100.00
2022-10-23T23:06:11.532Z,100.00
2022-10-23T23:09:18.086Z,100.00
2022-10-23T23:12:20.825Z,100.00
2022-10-23T23:15:23.301Z,100.00
2022-10-23T23:18:26.363Z,100.00
2022-10-23T23:21:30.259Z,100.00
2022-10-23T23:24:34.234Z,100.00
2022-10-23T23:27:36.758Z,100.00
2022-10-23T23:30:40.071Z,100.00
2022-10-23T23:33:43.133Z,100.00
2022-10-23T23:36:45.777Z,100.00
2022-10-23T23:39:49.560Z,100.00
2022-10-23T23:42:52.171Z,100.00
2022-10-23T23:45:54.685Z,100.00
2022-10-23T23:48:57.333Z,100.00
2022-10-23T23:51:59.805Z,100.00
2022-10-23T23:55:03.664Z,100.00
2022-10-23T23:58:06.351Z,100.00
